Time;durP1;ratioP1;P1;durP2;ratioP2;P2;SDS_P1;SDS_P2;PMS_P1;PMS_P2;Temp;Humidity;BMP_temperature;BMP_pressure;BME280_temperature;BME280_humidity;BME280_pressure;Samples;Min_cycle;Max_cycle;Signal;HPM_P1;HPM_P2
2022/01/25 00:28:24;;;;;;;32.40;16.45;;;;;;;;;;6249856;22;20026;-83
2022/01/25 00:33:26;;;;;;;30.38;17.17;;;;;;;;;;6248526;22;20030;-83
2022/01/25 00:35:52;;;;;;;27.85;16.02;;;;;;;;;;6220232;22;20012;-83
2022/01/25 00:38:18;;;;;;;30.33;16.52;;;;;;;;;;6246693;22;20022;-83
2022/01/25 00:40:43;;;;;;;29.27;16.30;;;;;;;;;;6220850;22;20020;-83
2022/01/25 00:43:09;;;;;;;28.13;15.68;;;;;;;;;;6245940;22;20081;-83
2022/01/25 00:45:35;;;;;;;29.15;16.25;;;;;;;;;;6221986;22;20042;-83
2022/01/25 00:48:03;;;;;;;29.30;16.60;;;;;;;;;;6221563;22;20027;-83
2022/01/25 00:50:37;;;;;;;32.53;16.48;;;;;;;;;;6222217;22;20046;-83
2022/01/25 00:55:29;;;;;;;29.70;15.10;;;;;;;;;;6247092;22;20445;-83
2022/01/25 00:57:55;;;;;;;28.85;16.17;;;;;;;;;;6219965;22;20020;-83
2022/01/25 01:00:21;;;;;;;28.58;17.23;;;;;;;;;;6220733;22;20019;-83
2022/01/25 01:02:47;;;;;;;30.45;17.23;;;;;;;;;;6220000;22;20336;-83
2022/01/25 01:05:13;;;;;;;33.25;17.40;;;;;;;;;;6220343;22;20066;-84
2022/01/25 01:07:41;;;;;;;37.03;19.52;;;;;;;;;;6219935;22;20039;-84
2022/01/25 01:10:07;;;;;;;37.60;18.92;;;;;;;;;;6220266;22;20016;-84
2022/01/25 01:15:28;;;;;;;35.33;17.85;;;;;;;;;;6249737;22;20023;-83
2022/01/25 01:31:50;;;;;;;31.95;17.88;;;;;;;;;;6248973;22;20020;-83
2022/01/25 01:39:58;;;;;;;36.70;19.02;;;;;;;;;;6249386;22;20016;-83
2022/01/25 01:42:54;;;;;;;32.58;17.67;;;;;;;;;;6250912;22;20015;-84
2022/01/25 01:48:01;;;;;;;35.85;18.25;;;;;;;;;;6248325;22;20016;-83
2022/01/25 01:50:30;;;;;;;35.83;19.00;;;;;;;;;;6222985;22;20102;-83
2022/01/25 01:52:57;;;;;;;37.72;18.40;;;;;;;;;;6224689;22;20058;-83
2022/01/25 01:55:23;;;;;;;34.25;17.92;;;;;;;;;;6222992;22;20023;-83
2022/01/25 01:57:49;;;;;;;38.45;19.58;;;;;;;;;;6222558;22;20020;-83
2022/01/25 02:00:20;;;;;;;37.88;19.75;;;;;;;;;;6223136;22;20020;-83
2022/01/25 02:02:46;;;;;;;37.47;19.92;;;;;;;;;;6222163;22;20039;-83
2022/01/25 02:05:12;;;;;;;36.72;18.92;;;;;;;;;;6221106;22;20093;-83
2022/01/25 02:07:38;;;;;;;38.15;19.92;;;;;;;;;;6222025;22;20027;-83
2022/01/25 02:10:05;;;;;;;42.35;20.35;;;;;;;;;;6222508;22;20012;-83
2022/01/25 02:12:30;;;;;;;38.65;20.50;;;;;;;;;;6220447;22;20086;-84
2022/01/25 02:14:56;;;;;;;39.47;20.27;;;;;;;;;;6221756;22;20337;-84
2022/01/25 02:23:18;;;;;;;35.40;19.52;;;;;;;;;;6251031;22;20440;-84
2022/01/25 02:25:47;;;;;;;36.97;18.67;;;;;;;;;;6221229;22;20039;-84
2022/01/25 02:28:13;;;;;;;34.17;18.80;;;;;;;;;;6246092;22;20035;-84
2022/01/25 02:30:39;;;;;;;34.95;19.75;;;;;;;;;;6220894;22;20031;-83
2022/01/25 02:33:05;;;;;;;32.10;17.38;;;;;;;;;;6221224;22;20012;-84
2022/01/25 02:35:31;;;;;;;38.88;19.60;;;;;;;;;;6220748;22;20016;-84
2022/01/25 02:37:57;;;;;;;34.20;18.77;;;;;;;;;;6221424;22;20526;-84
2022/01/25 02:40:22;;;;;;;34.92;17.55;;;;;;;;;;6221032;22;20077;-84
2022/01/25 02:42:50;;;;;;;36.63;18.25;;;;;;;;;;6220564;22;20094;-83
2022/01/25 02:45:17;;;;;;;37.65;19.00;;;;;;;;;;6221833;22;20023;-83
2022/01/25 02:50:29;;;;;;;34.53;18.40;;;;;;;;;;6173317;22;20012;-84
2022/01/25 02:52:55;;;;;;;34.47;18.50;;;;;;;;;;6219607;22;20453;-84
2022/01/25 02:55:21;;;;;;;34.40;18.20;;;;;;;;;;6219303;22;20030;-84
2022/01/25 02:57:47;;;;;;;35.17;18.48;;;;;;;;;;6218595;22;20104;-84
2022/01/25 03:00:14;;;;;;;35.90;19.15;;;;;;;;;;6219387;22;20117;-83
2022/01/25 03:02:40;;;;;;;38.03;18.65;;;;;;;;;;6219007;22;20015;-84
2022/01/25 03:05:06;;;;;;;40.63;20.02;;;;;;;;;;6219773;22;20012;-83
2022/01/25 03:07:33;;;;;;;40.28;19.05;;;;;;;;;;6245849;22;20123;-84
2022/01/25 03:10:00;;;;;;;37.30;19.30;;;;;;;;;;6217244;22;20061;-83
2022/01/25 03:12:50;;;;;;;35.42;18.75;;;;;;;;;;6246161;22;20016;-83
2022/01/25 03:17:55;;;;;;;31.80;17.48;;;;;;;;;;6246805;22;20364;-84
2022/01/25 03:20:33;;;;;;;37.03;18.35;;;;;;;;;;6221868;22;20559;-84
2022/01/25 03:23:05;;;;;;;41.53;20.55;;;;;;;;;;6249165;22;20394;-83
2022/01/25 03:25:31;;;;;;;39.17;19.17;;;;;;;;;;6222719;22;20511;-83
2022/01/25 03:27:57;;;;;;;38.10;18.80;;;;;;;;;;6218302;22;20023;-86
2022/01/25 03:30:26;;;;;;;38.47;20.13;;;;;;;;;;6218925;22;20019;-86
2022/01/25 03:32:52;;;;;;;35.67;19.13;;;;;;;;;;6221061;22;20049;-86
2022/01/25 03:35:18;;;;;;;43.78;21.40;;;;;;;;;;6223196;22;20012;-86
2022/01/25 03:37:44;;;;;;;42.13;21.17;;;;;;;;;;6223164;22;20687;-85
2022/01/25 03:40:11;;;;;;;41.05;20.25;;;;;;;;;;6223022;22;20330;-85
2022/01/25 03:42:38;;;;;;;44.75;21.17;;;;;;;;;;6247383;22;20019;-86
2022/01/25 03:45:09;;;;;;;41.90;21.55;;;;;;;;;;6224235;22;20341;-85
2022/01/25 03:47:57;;;;;;;51.15;23.02;;;;;;;;;;6222248;22;20024;-85
2022/01/25 03:50:23;;;;;;;46.15;20.83;;;;;;;;;;6227046;22;20124;-86
2022/01/25 03:52:49;;;;;;;45.83;22.50;;;;;;;;;;6249147;22;20071;-86
2022/01/25 03:55:15;;;;;;;55.45;24.27;;;;;;;;;;6223347;22;20073;-85
2022/01/25 03:57:40;;;;;;;50.53;23.60;;;;;;;;;;6223270;22;20019;-86
2022/01/25 04:00:07;;;;;;;57.00;26.13;;;;;;;;;;6224075;22;20019;-85
2022/01/25 04:02:35;;;;;;;59.40;25.88;;;;;;;;;;6247825;22;20035;-86
2022/01/25 04:05:02;;;;;;;54.67;24.15;;;;;;;;;;6223139;22;20352;-85
2022/01/25 04:07:44;;;;;;;56.17;23.85;;;;;;;;;;6222637;22;20016;-85
2022/01/25 04:10:09;;;;;;;63.03;27.15;;;;;;;;;;6227258;22;20073;-86
2022/01/25 04:12:35;;;;;;;56.55;26.40;;;;;;;;;;6223344;22;20468;-85
2022/01/25 04:15:02;;;;;;;58.75;24.58;;;;;;;;;;6222642;22;20020;-85
2022/01/25 04:17:28;;;;;;;58.13;24.20;;;;;;;;;;6221531;22;20035;-85
2022/01/25 04:20:12;;;;;;;54.00;24.60;;;;;;;;;;6248963;22;20069;-85
2022/01/25 04:25:23;;;;;;;53.72;24.75;;;;;;;;;;6253072;22;20078;-85
2022/01/25 04:27:49;;;;;;;51.80;23.15;;;;;;;;;;6221155;22;20015;-85
2022/01/25 04:30:14;;;;;;;51.78;22.75;;;;;;;;;;6223017;22;20024;-85
2022/01/25 04:32:50;;;;;;;56.80;23.55;;;;;;;;;;6221499;22;20011;-85
2022/01/25 04:49:20;;;;;;;53.03;23.88;;;;;;;;;;6251483;22;20062;-85
2022/01/25 04:51:58;;;;;;;54.80;25.88;;;;;;;;;;6226179;22;20016;-85
2022/01/25 04:54:39;;;;;;;60.97;26.63;;;;;;;;;;6224936;22;20092;-85
2022/01/25 04:57:19;;;;;;;54.20;25.20;;;;;;;;;;6225632;22;20031;-85
2022/01/25 05:00:03;;;;;;;51.60;23.88;;;;;;;;;;6224498;22;20422;-85
2022/01/25 05:02:50;;;;;;;51.90;22.48;;;;;;;;;;6226621;22;20424;-85
2022/01/25 05:05:23;;;;;;;51.08;23.30;;;;;;;;;;6230965;22;20019;-86
2022/01/25 05:10:15;;;;;;;56.90;25.38;;;;;;;;;;6247438;22;20393;-85
2022/01/25 05:15:27;;;;;;;55.80;23.48;;;;;;;;;;6248602;22;20087;-85
2022/01/25 05:18:09;;;;;;;52.65;23.27;;;;;;;;;;6226616;22;20472;-85
2022/01/25 05:23:19;;;;;;;52.42;22.42;;;;;;;;;;6251988;22;20026;-85
2022/01/25 05:25:44;;;;;;;50.45;21.40;;;;;;;;;;6223384;22;20016;-85
2022/01/25 05:28:10;;;;;;;49.92;21.60;;;;;;;;;;6224781;22;20023;-85
2022/01/25 05:30:39;;;;;;;48.15;20.88;;;;;;;;;;6223283;22;20023;-85
2022/01/25 05:33:04;;;;;;;43.63;19.15;;;;;;;;;;6223709;22;20020;-84
2022/01/25 05:35:30;;;;;;;41.67;19.70;;;;;;;;;;6224151;22;20034;-84
2022/01/25 05:37:56;;;;;;;45.42;19.35;;;;;;;;;;6249765;22;20070;-85
2022/01/25 05:46:00;;;;;;;39.00;18.20;;;;;;;;;;6197975;22;20075;-85
2022/01/25 05:48:27;;;;;;;46.85;19.95;;;;;;;;;;6225450;22;20019;-85
2022/01/25 05:50:54;;;;;;;41.58;18.42;;;;;;;;;;6222884;22;20041;-85
2022/01/25 05:53:21;;;;;;;42.72;19.33;;;;;;;;;;6223869;22;20094;-85
2022/01/25 05:55:48;;;;;;;44.78;18.80;;;;;;;;;;6223311;22;20384;-85
2022/01/25 05:58:14;;;;;;;41.25;18.88;;;;;;;;;;6222707;22;20522;-85
2022/01/25 06:00:40;;;;;;;44.47;18.85;;;;;;;;;;6223870;22;20027;-85
2022/01/25 06:03:07;;;;;;;42.70;18.02;;;;;;;;;;6224500;22;20065;-85
2022/01/25 06:05:33;;;;;;;40.15;18.70;;;;;;;;;;6223753;22;20095;-85
2022/01/25 06:07:59;;;;;;;44.40;20.10;;;;;;;;;;6224238;22;20099;-85
2022/01/25 06:10:25;;;;;;;42.38;19.50;;;;;;;;;;6223415;22;20020;-85
2022/01/25 06:12:50;;;;;;;44.70;19.08;;;;;;;;;;6223479;22;20095;-85
2022/01/25 06:15:16;;;;;;;45.55;19.17;;;;;;;;;;6223505;22;20058;-85
2022/01/25 06:17:42;;;;;;;65.95;26.55;;;;;;;;;;6223060;22;20047;-85
2022/01/25 06:20:08;;;;;;;52.85;24.27;;;;;;;;;;6252649;22;20020;-85
2022/01/25 06:22:34;;;;;;;51.13;20.15;;;;;;;;;;6223005;22;20036;-86
2022/01/25 06:25:00;;;;;;;48.30;20.67;;;;;;;;;;6221735;22;20019;-85
2022/01/25 06:27:26;;;;;;;40.97;18.83;;;;;;;;;;6224746;22;20015;-85
2022/01/25 06:29:52;;;;;;;38.25;17.88;;;;;;;;;;6222623;22;20023;-85
2022/01/25 06:32:19;;;;;;;38.85;17.55;;;;;;;;;;6224858;22;20019;-85
2022/01/25 06:34:46;;;;;;;40.10;18.27;;;;;;;;;;6223329;22;20026;-85
2022/01/25 06:37:16;;;;;;;35.60;18.35;;;;;;;;;;6218097;22;20028;-85
2022/01/25 06:39:42;;;;;;;39.92;18.08;;;;;;;;;;6219491;22;20077;-85
2022/01/25 06:42:09;;;;;;;42.83;18.83;;;;;;;;;;6222846;22;20031;-85
2022/01/25 06:44:36;;;;;;;39.92;18.42;;;;;;;;;;6223725;22;20020;-85
2022/01/25 06:47:03;;;;;;;42.38;20.00;;;;;;;;;;6248724;22;20016;-85
2022/01/25 06:49:29;;;;;;;40.78;18.70;;;;;;;;;;6247030;22;20020;-85
2022/01/25 06:51:54;;;;;;;39.53;17.83;;;;;;;;;;6222519;22;20114;-85
2022/01/25 06:54:20;;;;;;;43.58;19.38;;;;;;;;;;6222033;22;20523;-85
2022/01/25 06:56:46;;;;;;;43.22;17.85;;;;;;;;;;6248327;22;20040;-85
2022/01/25 06:59:11;;;;;;;45.95;20.30;;;;;;;;;;6221697;22;20049;-85
2022/01/25 07:01:38;;;;;;;43.67;18.38;;;;;;;;;;6224035;22;20484;-85
2022/01/25 07:04:04;;;;;;;46.22;20.23;;;;;;;;;;6227638;22;20016;-85
2022/01/25 07:06:29;;;;;;;48.38;19.35;;;;;;;;;;6227092;22;20488;-85
2022/01/25 07:08:55;;;;;;;42.60;19.10;;;;;;;;;;6225304;22;20019;-85
2022/01/25 07:11:21;;;;;;;41.47;18.70;;;;;;;;;;6225471;22;20020;-85
2022/01/25 07:13:47;;;;;;;40.53;18.15;;;;;;;;;;6223516;22;20019;-85
2022/01/25 07:16:13;;;;;;;45.15;18.60;;;;;;;;;;6227776;22;20008;-85
2022/01/25 07:18:39;;;;;;;39.20;17.70;;;;;;;;;;6224778;22;20457;-85
2022/01/25 07:21:05;;;;;;;43.03;19.30;;;;;;;;;;6225320;22;20012;-85
2022/01/25 07:23:30;;;;;;;40.92;19.25;;;;;;;;;;6227949;22;20029;-85
2022/01/25 07:25:56;;;;;;;45.33;19.88;;;;;;;;;;6250836;22;20020;-85
2022/01/25 07:28:22;;;;;;;46.58;19.17;;;;;;;;;;6227563;22;20092;-85
2022/01/25 07:30:47;;;;;;;47.47;21.67;;;;;;;;;;6224283;22;20015;-85
2022/01/25 07:33:13;;;;;;;45.70;19.98;;;;;;;;;;6225555;22;20044;-85
2022/01/25 07:35:40;;;;;;;41.63;19.25;;;;;;;;;;6225835;22;20384;-85
2022/01/25 07:38:06;;;;;;;42.53;19.00;;;;;;;;;;6252441;22;20015;-85
2022/01/25 07:40:35;;;;;;;43.28;19.23;;;;;;;;;;6224732;22;20090;-85
2022/01/25 07:43:02;;;;;;;49.28;21.17;;;;;;;;;;6253163;22;20042;-86
2022/01/25 07:45:34;;;;;;;44.92;21.30;;;;;;;;;;6226793;22;20368;-85
2022/01/25 07:47:59;;;;;;;49.28;21.15;;;;;;;;;;6229620;22;20070;-86
2022/01/25 07:50:26;;;;;;;47.72;20.35;;;;;;;;;;6226920;22;20024;-85
2022/01/25 07:52:52;;;;;;;42.92;19.17;;;;;;;;;;6226314;22;20023;-85
2022/01/25 07:55:18;;;;;;;50.05;21.77;;;;;;;;;;6251310;22;20032;-85
2022/01/25 07:57:44;;;;;;;47.90;22.02;;;;;;;;;;6227852;22;20031;-85
2022/01/25 08:00:10;;;;;;;48.13;20.75;;;;;;;;;;6227652;22;20019;-85
2022/01/25 08:02:36;;;;;;;53.00;21.02;;;;;;;;;;6227618;22;20050;-85
2022/01/25 08:05:02;;;;;;;54.00;22.13;;;;;;;;;;6226997;22;20019;-86
2022/01/25 08:07:28;;;;;;;44.28;20.88;;;;;;;;;;6214919;22;20047;-85
2022/01/25 08:09:53;;;;;;;51.55;21.05;;;;;;;;;;6225818;22;20043;-85
2022/01/25 08:12:20;;;;;;;48.83;20.00;;;;;;;;;;6253630;22;20024;-85
2022/01/25 08:14:46;;;;;;;48.00;20.45;;;;;;;;;;6226497;22;20040;-85
2022/01/25 08:17:12;;;;;;;48.65;19.58;;;;;;;;;;6228004;22;20257;-85
2022/01/25 08:19:38;;;;;;;48.47;20.27;;;;;;;;;;6230271;22;20024;-85
2022/01/25 08:22:03;;;;;;;49.78;20.73;;;;;;;;;;6228589;22;20092;-85
2022/01/25 08:24:29;;;;;;;57.55;22.25;;;;;;;;;;6225407;22;20019;-85
2022/01/25 08:26:55;;;;;;;54.97;22.30;;;;;;;;;;6226094;22;20077;-85
2022/01/25 08:29:21;;;;;;;48.47;20.85;;;;;;;;;;6226908;22;20016;-86
2022/01/25 08:31:47;;;;;;;51.38;20.95;;;;;;;;;;6225091;22;20058;-86
2022/01/25 08:34:13;;;;;;;51.92;21.38;;;;;;;;;;6224999;22;20015;-86
2022/01/25 08:36:39;;;;;;;50.53;21.17;;;;;;;;;;6223900;22;20020;-85
2022/01/25 08:39:06;;;;;;;47.08;20.40;;;;;;;;;;6221848;22;20086;-82
2022/01/25 08:41:32;;;;;;;51.08;22.42;;;;;;;;;;6218914;22;20008;-83
2022/01/25 08:43:57;;;;;;;45.10;20.50;;;;;;;;;;6243443;22;20012;-82
2022/01/25 08:46:23;;;;;;;47.30;21.25;;;;;;;;;;6219156;22;20027;-83
2022/01/25 08:48:49;;;;;;;45.65;20.42;;;;;;;;;;6219785;22;20028;-83
2022/01/25 08:51:16;;;;;;;43.58;19.85;;;;;;;;;;6244224;22;20024;-83
2022/01/25 08:53:42;;;;;;;46.20;20.80;;;;;;;;;;6245638;22;20070;-83
2022/01/25 08:56:08;;;;;;;46.05;21.00;;;;;;;;;;6219735;22;20015;-83
2022/01/25 08:58:34;;;;;;;42.80;20.73;;;;;;;;;;6244902;22;20016;-83
2022/01/25 09:01:00;;;;;;;40.97;19.15;;;;;;;;;;6217687;22;20090;-83
2022/01/25 09:03:26;;;;;;;46.13;20.60;;;;;;;;;;6216059;22;20039;-83
2022/01/25 09:05:53;;;;;;;40.40;19.65;;;;;;;;;;6210385;22;20011;-83
2022/01/25 09:08:21;;;;;;;39.58;18.48;;;;;;;;;;6217697;22;20020;-84
2022/01/25 09:10:50;;;;;;;44.78;20.40;;;;;;;;;;6219385;22;20043;-84
2022/01/25 09:13:18;;;;;;;41.55;20.33;;;;;;;;;;6243421;22;20503;-83
2022/01/25 09:15:43;;;;;;;41.70;19.95;;;;;;;;;;6218053;22;20020;-85
2022/01/25 09:18:09;;;;;;;44.72;21.17;;;;;;;;;;6244666;22;20121;-82
2022/01/25 09:20:35;;;;;;;43.08;21.67;;;;;;;;;;6220626;22;20103;-83
2022/01/25 09:23:01;;;;;;;42.40;19.95;;;;;;;;;;6219148;22;20392;-82
2022/01/25 09:25:26;;;;;;;42.13;20.75;;;;;;;;;;6218551;22;20019;-82
2022/01/25 09:27:52;;;;;;;40.05;19.23;;;;;;;;;;6244915;22;20073;-83
2022/01/25 09:30:18;;;;;;;41.88;21.40;;;;;;;;;;6272068;22;20570;-82
2022/01/25 09:32:44;;;;;;;40.97;19.40;;;;;;;;;;6244348;22;20024;-83
2022/01/25 09:35:09;;;;;;;42.42;20.92;;;;;;;;;;6220219;22;20685;-82
2022/01/25 09:37:35;;;;;;;42.10;18.83;;;;;;;;;;6220445;22;20471;-82
2022/01/25 09:40:02;;;;;;;43.10;19.83;;;;;;;;;;6221152;22;20016;-83
2022/01/25 09:42:30;;;;;;;45.92;20.63;;;;;;;;;;6244599;22;20043;-82
2022/01/25 09:44:56;;;;;;;42.15;19.58;;;;;;;;;;6219903;22;20016;-83
2022/01/25 09:47:22;;;;;;;42.25;20.70;;;;;;;;;;6246667;22;20027;-83
2022/01/25 09:49:47;;;;;;;39.17;19.95;;;;;;;;;;6219296;22;20020;-82
2022/01/25 09:52:13;;;;;;;38.67;20.10;;;;;;;;;;6217088;22;20130;-83
2022/01/25 09:54:39;;;;;;;39.08;18.90;;;;;;;;;;6244598;22;20016;-83
2022/01/25 09:57:06;;;;;;;43.30;20.15;;;;;;;;;;6220233;22;20042;-85
2022/01/25 09:59:31;;;;;;;40.95;20.77;;;;;;;;;;6220128;22;20015;-84
2022/01/25 10:01:58;;;;;;;41.00;18.70;;;;;;;;;;6219281;22;20416;-85
2022/01/25 10:04:35;;;;;;;42.67;21.25;;;;;;;;;;6219143;22;20085;-84
2022/01/25 10:07:04;;;;;;;40.55;20.52;;;;;;;;;;6220452;22;20016;-85
2022/01/25 10:09:31;;;;;;;39.67;19.60;;;;;;;;;;6218435;22;20016;-85
2022/01/25 10:11:57;;;;;;;39.63;20.10;;;;;;;;;;6219031;22;20073;-84
2022/01/25 10:14:25;;;;;;;39.47;18.02;;;;;;;;;;6221038;22;20099;-84
2022/01/25 10:16:55;;;;;;;40.53;18.92;;;;;;;;;;6222520;22;20353;-84
2022/01/25 10:19:25;;;;;;;42.28;22.38;;;;;;;;;;6223054;22;20073;-84
2022/01/25 10:21:52;;;;;;;51.95;26.20;;;;;;;;;;6219600;22;20086;-84
2022/01/25 10:24:27;;;;;;;44.85;22.35;;;;;;;;;;6221139;22;20095;-85
2022/01/25 10:26:56;;;;;;;39.45;20.10;;;;;;;;;;6221459;22;20016;-84
2022/01/25 10:29:25;;;;;;;41.45;19.13;;;;;;;;;;6219852;22;20095;-84
2022/01/25 10:31:57;;;;;;;37.75;18.77;;;;;;;;;;6245786;22;20019;-84
2022/01/25 10:34:35;;;;;;;35.17;17.85;;;;;;;;;;6221119;22;20098;-84
2022/01/25 10:37:08;;;;;;;38.92;18.15;;;;;;;;;;6246692;22;20087;-83
2022/01/25 10:39:36;;;;;;;37.40;17.77;;;;;;;;;;6220453;22;20027;-83
2022/01/25 10:42:07;;;;;;;32.15;16.67;;;;;;;;;;6240078;22;20008;-83
2022/01/25 10:44:50;;;;;;;32.70;16.63;;;;;;;;;;6220109;22;20094;-83
2022/01/25 10:47:16;;;;;;;37.10;18.63;;;;;;;;;;6245159;22;20016;-83
2022/01/25 10:49:50;;;;;;;28.40;15.32;;;;;;;;;;6220321;22;20031;-84
2022/01/25 10:52:23;;;;;;;28.83;14.43;;;;;;;;;;6219546;22;20070;-83
2022/01/25 10:54:49;;;;;;;33.70;18.10;;;;;;;;;;6219526;22;20353;-83
2022/01/25 10:57:26;;;;;;;38.70;17.15;;;;;;;;;;6219912;22;20044;-83
2022/01/25 11:00:00;;;;;;;29.88;14.93;;;;;;;;;;6221923;22;20016;-83
2022/01/25 11:02:26;;;;;;;28.25;13.77;;;;;;;;;;6219751;22;20020;-83
2022/01/25 11:05:04;;;;;;;28.05;14.45;;;;;;;;;;6244577;22;20067;-83
2022/01/25 11:07:37;;;;;;;27.83;13.43;;;;;;;;;;6218619;22;20078;-83
2022/01/25 11:10:03;;;;;;;28.58;14.02;;;;;;;;;;6219664;22;20032;-83
2022/01/25 11:12:36;;;;;;;25.50;13.15;;;;;;;;;;6217849;22;20457;-83
2022/01/25 11:15:01;;;;;;;30.45;15.05;;;;;;;;;;6221578;22;20588;-83
2022/01/25 11:17:29;;;;;;;25.73;13.27;;;;;;;;;;6219674;22;20089;-83
2022/01/25 11:19:55;;;;;;;25.77;13.10;;;;;;;;;;6245097;22;20012;-84
2022/01/25 11:22:22;;;;;;;29.38;14.57;;;;;;;;;;6218389;22;20361;-83
2022/01/25 11:24:51;;;;;;;26.85;13.75;;;;;;;;;;6217889;22;20056;-84
2022/01/25 11:27:16;;;;;;;30.85;14.52;;;;;;;;;;6243957;22;20019;-84
2022/01/25 11:29:43;;;;;;;30.67;15.23;;;;;;;;;;6243743;22;20103;-84
2022/01/25 11:32:12;;;;;;;30.40;15.38;;;;;;;;;;6219567;22;20334;-83
2022/01/25 11:34:39;;;;;;;33.25;16.77;;;;;;;;;;6220803;22;20065;-83
2022/01/25 11:37:07;;;;;;;35.97;18.08;;;;;;;;;;6243013;22;20092;-83
2022/01/25 11:39:34;;;;;;;30.35;15.57;;;;;;;;;;6219161;22;20039;-84
2022/01/25 11:42:14;;;;;;;31.80;16.17;;;;;;;;;;6226992;22;20047;-83
2022/01/25 11:44:48;;;;;;;27.65;14.70;;;;;;;;;;6218497;22;20093;-83
2022/01/25 11:47:16;;;;;;;29.67;14.52;;;;;;;;;;6218349;22;20047;-83
2022/01/25 11:49:58;;;;;;;29.27;13.50;;;;;;;;;;6221576;22;20031;-83
2022/01/25 11:52:26;;;;;;;28.13;14.07;;;;;;;;;;6243369;22;20020;-84
2022/01/25 11:54:54;;;;;;;30.85;13.60;;;;;;;;;;6218648;22;20016;-83
2022/01/25 11:57:23;;;;;;;27.63;13.88;;;;;;;;;;6218173;22;20023;-83
2022/01/25 11:59:55;;;;;;;30.80;14.02;;;;;;;;;;6217555;22;20398;-83
2022/01/25 12:02:39;;;;;;;31.92;14.43;;;;;;;;;;6244131;22;20022;-83
2022/01/25 12:05:09;;;;;;;26.75;13.63;;;;;;;;;;6244308;22;20047;-84
2022/01/25 12:07:39;;;;;;;25.95;12.90;;;;;;;;;;6218385;22;20104;-83
2022/01/25 12:10:35;;;;;;;26.13;12.57;;;;;;;;;;6219657;22;20073;-84
2022/01/25 12:13:10;;;;;;;25.33;12.27;;;;;;;;;;6218484;22;20095;-84
2022/01/25 12:15:36;;;;;;;25.63;11.13;;;;;;;;;;6243828;22;20027;-84
2022/01/25 12:18:02;;;;;;;22.25;12.25;;;;;;;;;;6243392;22;20055;-84
2022/01/25 12:20:28;;;;;;;22.60;10.95;;;;;;;;;;6243235;22;20102;-83
2022/01/25 12:23:16;;;;;;;24.88;12.10;;;;;;;;;;6217426;22;20091;-83
2022/01/25 12:25:53;;;;;;;23.13;11.63;;;;;;;;;;6220651;22;20018;-83
2022/01/25 12:28:29;;;;;;;23.73;11.70;;;;;;;;;;6220167;22;20020;-83
2022/01/25 12:30:59;;;;;;;26.52;12.52;;;;;;;;;;6218633;22;20012;-83
2022/01/25 12:33:29;;;;;;;22.10;11.05;;;;;;;;;;6243085;22;20016;-83
2022/01/25 12:36:00;;;;;;;22.33;11.55;;;;;;;;;;6218815;22;20018;-83
2022/01/25 12:38:38;;;;;;;19.60;9.80;;;;;;;;;;6243270;22;20330;-83
2022/01/25 12:41:08;;;;;;;22.08;11.65;;;;;;;;;;6271366;22;20345;-84
2022/01/25 12:43:41;;;;;;;21.77;10.70;;;;;;;;;;6217228;22;20011;-84
2022/01/25 12:46:28;;;;;;;20.17;9.40;;;;;;;;;;6269806;22;20457;-82
2022/01/25 12:48:56;;;;;;;18.23;8.98;;;;;;;;;;6243473;22;20027;-83
2022/01/25 12:51:27;;;;;;;19.63;10.15;;;;;;;;;;6242883;22;20023;-83
2022/01/25 12:53:55;;;;;;;18.70;8.52;;;;;;;;;;6217632;22;20012;-82
2022/01/25 12:56:27;;;;;;;17.08;8.50;;;;;;;;;;6217490;22;20026;-82
2022/01/25 12:58:58;;;;;;;19.42;9.98;;;;;;;;;;6214313;22;20020;-81
2022/01/25 13:01:26;;;;;;;18.65;9.77;;;;;;;;;;6216772;22;20020;-83
2022/01/25 13:03:55;;;;;;;18.67;9.70;;;;;;;;;;6219301;22;20445;-82
2022/01/25 13:06:28;;;;;;;18.02;9.18;;;;;;;;;;6243853;22;20334;-82
2022/01/25 13:09:02;;;;;;;21.40;9.30;;;;;;;;;;6244595;22;20080;-82
2022/01/25 13:17:06;;;;;;;16.67;9.10;;;;;;;;;;6239144;22;20392;-83
2022/01/25 13:19:41;;;;;;;19.70;8.45;;;;;;;;;;6244384;22;20104;-83
2022/01/25 13:22:12;;;;;;;17.48;8.52;;;;;;;;;;6216970;22;20018;-83
2022/01/25 13:24:47;;;;;;;19.05;9.10;;;;;;;;;;6218765;22;20008;-82
2022/01/25 13:27:15;;;;;;;19.30;9.35;;;;;;;;;;6243861;22;20030;-82
2022/01/25 13:32:38;;;;;;;20.20;9.63;;;;;;;;;;6246554;22;20065;-81
2022/01/25 13:35:30;;;;;;;18.98;9.20;;;;;;;;;;6217154;22;20016;-83
2022/01/25 13:38:11;;;;;;;19.15;9.80;;;;;;;;;;6244351;22;20029;-84
2022/01/25 13:41:26;;;;;;;21.63;9.93;;;;;;;;;;6241503;22;20304;-83
2022/01/25 13:46:07;;;;;;;23.25;11.05;;;;;;;;;;6245196;22;20020;-82
2022/01/25 13:48:35;;;;;;;22.27;11.13;;;;;;;;;;6220494;22;20018;-82
2022/01/25 13:51:06;;;;;;;24.13;10.95;;;;;;;;;;6220174;22;20012;-83
2022/01/25 13:53:32;;;;;;;21.63;10.63;;;;;;;;;;6219912;22;20023;-82
2022/01/25 13:56:00;;;;;;;20.40;11.38;;;;;;;;;;6245046;22;20018;-81
2022/01/25 13:58:27;;;;;;;22.10;11.35;;;;;;;;;;6244147;22;20020;-82
2022/01/25 14:00:54;;;;;;;22.88;10.55;;;;;;;;;;6217672;22;20019;-82
2022/01/25 14:03:27;;;;;;;24.25;12.07;;;;;;;;;;6220767;22;20020;-85
2022/01/25 14:05:53;;;;;;;24.95;12.23;;;;;;;;;;6244376;22;20405;-83
2022/01/25 14:08:35;;;;;;;26.85;12.43;;;;;;;;;;6218874;22;20025;-82
2022/01/25 14:11:03;;;;;;;26.33;11.95;;;;;;;;;;6241582;22;20028;-83
2022/01/25 14:24:36;;;;;;;22.92;11.65;;;;;;;;;;6248573;22;20020;-82
2022/01/25 14:27:24;;;;;;;25.95;12.93;;;;;;;;;;6218137;22;20031;-81
2022/01/25 14:29:51;;;;;;;25.27;13.40;;;;;;;;;;6218120;22;20022;-83
2022/01/25 14:32:28;;;;;;;26.25;13.40;;;;;;;;;;6217501;22;20028;-83
2022/01/25 14:35:04;;;;;;;26.80;13.52;;;;;;;;;;6217592;22;20113;-82
2022/01/25 14:37:30;;;;;;;27.95;13.10;;;;;;;;;;6244820;22;20086;-80
2022/01/25 14:40:09;;;;;;;24.98;12.40;;;;;;;;;;6217962;22;20016;-81
2022/01/25 14:42:37;;;;;;;27.15;12.73;;;;;;;;;;6218106;22;20085;-81
2022/01/25 14:45:06;;;;;;;24.23;11.30;;;;;;;;;;6243875;22;20095;-82
2022/01/25 14:47:37;;;;;;;28.80;15.15;;;;;;;;;;6218110;22;20024;-82
2022/01/25 14:50:07;;;;;;;27.20;12.23;;;;;;;;;;6245776;22;20045;-82
2022/01/25 14:52:32;;;;;;;27.20;12.70;;;;;;;;;;6219862;22;20023;-83
2022/01/25 14:54:58;;;;;;;25.92;12.85;;;;;;;;;;6219340;22;20050;-82
2022/01/25 14:57:31;;;;;;;26.50;12.57;;;;;;;;;;6219655;22;20032;-82
2022/01/25 14:59:59;;;;;;;27.15;12.52;;;;;;;;;;6220519;22;20070;-83
2022/01/25 15:02:25;;;;;;;29.73;14.23;;;;;;;;;;6219959;22;20369;-82
2022/01/25 15:04:55;;;;;;;33.03;13.45;;;;;;;;;;6271155;22;20019;-83
2022/01/25 15:07:25;;;;;;;30.60;15.52;;;;;;;;;;6218204;22;20032;-81
2022/01/25 15:09:58;;;;;;;29.48;13.05;;;;;;;;;;6220039;22;20368;-82
2022/01/25 15:12:28;;;;;;;31.48;14.82;;;;;;;;;;6220173;22;20070;-82
2022/01/25 15:15:03;;;;;;;33.33;15.27;;;;;;;;;;6219668;22;20015;-82
2022/01/25 15:17:29;;;;;;;32.03;14.27;;;;;;;;;;6221501;22;20077;-82
2022/01/25 15:19:55;;;;;;;29.30;13.65;;;;;;;;;;6219778;22;20048;-82
2022/01/25 15:22:22;;;;;;;36.03;16.25;;;;;;;;;;6219081;22;20020;-83
2022/01/25 15:24:49;;;;;;;34.40;14.85;;;;;;;;;;6219772;22;20015;-82
2022/01/25 15:27:15;;;;;;;37.03;16.25;;;;;;;;;;6218709;22;20023;-83
2022/01/25 15:29:42;;;;;;;37.63;15.85;;;;;;;;;;6245805;22;20482;-82
2022/01/25 15:32:11;;;;;;;28.45;13.15;;;;;;;;;;6219712;22;20086;-83
2022/01/25 15:34:39;;;;;;;40.80;14.98;;;;;;;;;;6219186;22;20400;-83
2022/01/25 15:37:06;;;;;;;35.15;15.93;;;;;;;;;;6220280;22;20020;-81
2022/01/25 15:39:33;;;;;;;37.75;17.30;;;;;;;;;;6241433;22;20553;-82
2022/01/25 15:42:00;;;;;;;43.20;17.98;;;;;;;;;;6215946;22;20489;-82
2022/01/25 15:45:09;;;;;;;43.35;20.52;;;;;;;;;;6218983;22;20255;-83
2022/01/25 15:47:19;;;;;;;46.78;19.85;;;;;;;;;;6245645;22;20398;-81
2022/01/25 15:49:46;;;;;;;58.63;28.13;;;;;;;;;;6222205;22;20515;-82
2022/01/25 15:52:13;;;;;;;45.08;20.63;;;;;;;;;;6248527;22;20064;-82
2022/01/25 15:54:41;;;;;;;62.80;33.33;;;;;;;;;;6228094;22;20008;-83
2022/01/25 15:57:07;;;;;;;69.68;33.25;;;;;;;;;;6259700;22;20012;-84
2022/01/25 15:59:34;;;;;;;72.60;34.20;;;;;;;;;;6217389;22;20496;-83
2022/01/25 16:02:10;;;;;;;48.33;21.55;;;;;;;;;;6230763;22;20036;-82
2022/01/25 16:04:41;;;;;;;87.18;42.10;;;;;;;;;;6232386;22;20019;-83
2022/01/25 16:07:08;;;;;;;38.47;18.10;;;;;;;;;;6235635;22;20014;-82
2022/01/25 16:09:35;;;;;;;40.95;18.73;;;;;;;;;;6229992;22;20016;-81
2022/01/25 16:12:01;;;;;;;37.50;17.17;;;;;;;;;;6229042;22;20058;-85
2022/01/25 16:14:28;;;;;;;42.17;19.15;;;;;;;;;;6245433;22;20353;-85
2022/01/25 16:16:54;;;;;;;44.03;18.48;;;;;;;;;;6231694;22;20023;-85
2022/01/25 16:19:20;;;;;;;44.75;20.83;;;;;;;;;;6231118;22;20027;-84
2022/01/25 16:21:46;;;;;;;51.80;22.58;;;;;;;;;;6255813;22;20473;-85
2022/01/25 16:24:11;;;;;;;41.08;16.55;;;;;;;;;;6229183;22;20470;-83
2022/01/25 16:26:37;;;;;;;39.10;17.77;;;;;;;;;;6228524;22;20039;-83
2022/01/25 16:29:03;;;;;;;40.10;17.98;;;;;;;;;;6228756;22;20032;-83